Time;durP1;ratioP1;P1;durP2;ratioP2;P2;SDS_P1;SDS_P2;PMS_P1;PMS_P2;Temp;Humidity;BMP_temperature;BMP_pressure;BME280_temperature;BME280_humidity;BME280_pressure;Samples;Min_cycle;Max_cycle;Signal;HPM_P1;HPM_P2
2023/04/10 00:02:22;;;;;;;6.22;4.45;;;;;7.10;99091.00;;;;5059821;28;20052;-59
2023/04/10 00:04:48;;;;;;;6.75;5.10;;;;;7.10;99090.00;;;;5059719;28;20041;-61
2023/04/10 00:07:15;;;;;;;7.18;5.25;;;;;7.10;99096.00;;;;5059757;28;20649;-60
2023/04/10 00:09:42;;;;;;;6.28;5.05;;;;;7.10;99094.00;;;;5058493;28;20497;-61
2023/04/10 00:12:10;;;;;;;6.03;4.80;;;;;7.00;99098.00;;;;5059694;28;20059;-60
2023/04/10 00:14:37;;;;;;;6.30;5.15;;;;;7.10;99095.00;;;;5058032;28;20045;-60
2023/04/10 00:17:03;;;;;;;6.18;4.65;;;;;7.00;99096.00;;;;5056642;28;20052;-60
2023/04/10 00:19:30;;;;;;;7.05;4.85;;;;;6.80;99082.00;;;;5056603;28;20045;-60
2023/04/10 00:21:56;;;;;;;5.13;4.47;;;;;6.70;99083.00;;;;5054297;28;20049;-60
2023/04/10 00:24:23;;;;;;;5.65;4.88;;;;;6.60;99079.00;;;;5055839;28;20501;-61
2023/04/10 00:26:50;;;;;;;8.77;4.93;;;;;6.50;99077.00;;;;5054939;28;20044;-61
2023/04/10 00:29:17;;;;;;;6.10;5.05;;;;;6.40;99078.00;;;;5053360;28;20060;-60
2023/04/10 00:31:44;;;;;;;6.22;4.65;;;;;6.50;99085.00;;;;5054834;28;20041;-61
2023/04/10 00:34:10;;;;;;;8.25;5.25;;;;;6.50;99085.00;;;;5053490;28;20480;-59
2023/04/10 00:36:37;;;;;;;6.53;4.60;;;;;6.40;99091.00;;;;5054791;28;20055;-60
2023/04/10 00:39:04;;;;;;;10.77;5.20;;;;;6.40;99091.00;;;;5053283;28;20045;-61
2023/04/10 00:41:30;;;;;;;7.03;5.38;;;;;6.30;99092.00;;;;5053381;28;20098;-61
2023/04/10 00:43:57;;;;;;;7.97;5.50;;;;;6.40;99095.00;;;;5053439;28;20476;-61
2023/04/10 00:46:24;;;;;;;6.35;5.40;;;;;6.50;99097.00;;;;5054322;28;20037;-61
2023/04/10 00:48:51;;;;;;;6.97;5.22;;;;;6.60;99094.00;;;;5052758;28;20076;-60
2023/04/10 00:51:19;;;;;;;7.10;5.47;;;;;6.80;99094.00;;;;5054189;28;20116;-60
2023/04/10 00:53:47;;;;;;;6.80;5.03;;;;;6.80;99094.00;;;;5054076;28;20056;-58
2023/04/10 00:56:14;;;;;;;6.30;4.97;;;;;6.80;99089.00;;;;5053959;28;20041;-60
2023/04/10 00:58:40;;;;;;;7.22;5.47;;;;;6.90;99102.00;;;;5052285;28;20045;-61
2023/04/10 01:01:07;;;;;;;5.75;4.53;;;;;6.80;99092.00;;;;5053848;28;20052;-57
2023/04/10 01:03:35;;;;;;;6.70;4.50;;;;;6.80;99086.00;;;;5052547;28;20080;-60
2023/04/10 01:06:13;;;;;;;6.65;4.60;;;;;6.80;99099.00;;;;5053790;28;20037;-61
2023/04/10 01:08:50;;;;;;;7.45;4.95;;;;;6.80;99092.00;;;;5052639;28;20041;-60
2023/04/10 01:11:36;;;;;;;5.10;4.22;;;;;6.70;99086.00;;;;5053395;28;20052;-61
2023/04/10 01:14:30;;;;;;;6.07;4.75;;;;;6.70;99083.00;;;;5052784;28;20417;-57
2023/04/10 01:17:11;;;;;;;6.00;4.50;;;;;6.50;99077.00;;;;5053860;28;20041;-61
2023/04/10 01:19:59;;;;;;;6.35;5.05;;;;;6.40;99067.00;;;;5054003;28;20041;-61
2023/04/10 01:23:03;;;;;;;6.05;4.65;;;;;6.30;99068.00;;;;5052593;28;20124;-60
2023/04/10 01:25:44;;;;;;;6.88;5.38;;;;;6.30;99065.00;;;;5052220;28;20403;-60
2023/04/10 01:28:18;;;;;;;7.25;5.28;;;;;6.10;99059.00;;;;5052143;28;20056;-59
2023/04/10 01:30:47;;;;;;;6.70;5.15;;;;;6.00;99052.00;;;;5035292;28;20068;-60
2023/04/10 01:33:20;;;;;;;8.13;5.40;;;;;5.80;99057.00;;;;5053475;28;20045;-60
2023/04/10 01:35:51;;;;;;;6.28;4.97;;;;;5.80;99054.00;;;;5052061;28;20052;-60
2023/04/10 01:38:20;;;;;;;7.07;5.05;;;;;5.80;99040.00;;;;5052336;28;20140;-60
2023/04/10 01:40:51;;;;;;;8.48;5.60;;;;;5.90;99048.00;;;;5052389;28;20052;-59
2023/04/10 01:43:26;;;;;;;7.05;5.55;;;;;5.90;99041.00;;;;5052836;28;20403;-58
2023/04/10 01:45:56;;;;;;;7.18;5.82;;;;;5.90;99050.00;;;;5053037;28;20049;-58
2023/04/10 01:48:23;;;;;;;9.57;5.35;;;;;6.00;99049.00;;;;5052032;28;20049;-59
2023/04/10 01:50:52;;;;;;;6.68;5.47;;;;;6.00;99043.00;;;;5051950;28;20080;-58
2023/04/10 01:53:19;;;;;;;7.55;5.97;;;;;5.90;99047.00;;;;5053523;28;20056;-61
2023/04/10 01:55:47;;;;;;;7.57;5.45;;;;;5.80;99041.00;;;;5052110;28;20041;-57
2023/04/10 01:58:14;;;;;;;6.35;5.07;;;;;5.70;99041.00;;;;5052588;28;20090;-56
2023/04/10 02:00:44;;;;;;;6.97;5.68;;;;;5.60;99052.00;;;;5052161;28;20494;-57
2023/04/10 02:03:12;;;;;;;8.68;6.00;;;;;5.60;99049.00;;;;5052588;28;20052;-57
2023/04/10 02:06:01;;;;;;;8.90;6.35;;;;;5.70;99051.00;;;;5052532;28;20167;-58
2023/04/10 02:08:36;;;;;;;6.65;5.35;;;;;5.70;99040.00;;;;5051981;28;20139;-60
2023/04/10 02:11:24;;;;;;;8.05;5.22;;;;;5.70;99048.00;;;;5052580;28;20063;-58
2023/04/10 02:13:52;;;;;;;7.90;5.63;;;;;5.70;99044.00;;;;5052298;28;20111;-56
2023/04/10 02:16:21;;;;;;;7.65;5.53;;;;;5.70;99039.00;;;;5053083;28;20071;-60
2023/04/10 02:18:49;;;;;;;7.35;5.70;;;;;5.60;99032.00;;;;5052940;28;20081;-59
2023/04/10 02:21:16;;;;;;;6.97;5.53;;;;;5.70;99028.00;;;;5053312;28;20045;-60
2023/04/10 02:23:42;;;;;;;7.78;5.60;;;;;5.70;99034.00;;;;5052170;28;20048;-61
2023/04/10 02:26:09;;;;;;;7.85;5.90;;;;;5.70;99034.00;;;;5053110;28;20567;-56
2023/04/10 02:28:39;;;;;;;6.95;5.68;;;;;5.70;99024.00;;;;5054108;28;20055;-55
2023/04/10 02:31:06;;;;;;;9.00;5.95;;;;;5.80;99031.00;;;;5052837;28;20045;-57
2023/04/10 02:33:33;;;;;;;8.90;6.18;;;;;5.90;99026.00;;;;5051520;28;20130;-57
2023/04/10 02:36:00;;;;;;;9.13;6.10;;;;;5.80;99024.00;;;;5051317;28;20048;-57
2023/04/10 02:38:27;;;;;;;8.20;5.90;;;;;5.70;99013.00;;;;5052463;28;20039;-59
2023/04/10 02:40:54;;;;;;;7.68;5.50;;;;;5.50;99005.00;;;;5051644;28;20045;-61
2023/04/10 02:43:21;;;;;;;8.43;6.13;;;;;5.50;99004.00;;;;5052588;28;20049;-57
2023/04/10 02:45:47;;;;;;;7.97;6.00;;;;;5.50;99009.00;;;;5035102;28;20053;-57
2023/04/10 02:48:21;;;;;;;8.53;6.23;;;;;5.40;99006.00;;;;5051294;28;20413;-61
2023/04/10 02:50:58;;;;;;;8.57;6.03;;;;;5.50;98998.00;;;;5051321;28;20284;-61
2023/04/10 02:53:27;;;;;;;10.32;6.10;;;;;5.50;98996.00;;;;5051263;28;20049;-58
2023/04/10 02:55:57;;;;;;;8.70;6.30;;;;;5.60;98993.00;;;;5052619;28;20440;-60
2023/04/10 02:58:23;;;;;;;6.90;5.68;;;;;5.70;98992.00;;;;5050983;28;20052;-61
2023/04/10 03:00:53;;;;;;;7.35;5.70;;;;;5.70;98988.00;;;;5050827;28;20111;-60
2023/04/10 03:03:40;;;;;;;9.88;6.30;;;;;5.60;98984.00;;;;5052224;28;20044;-60
2023/04/10 03:06:08;;;;;;;7.63;5.85;;;;;5.50;98978.00;;;;5050915;28;20095;-59
2023/04/10 03:08:35;;;;;;;7.88;6.35;;;;;5.70;98981.00;;;;5050391;28;20041;-61
2023/04/10 03:11:02;;;;;;;11.23;6.32;;;;;5.80;98973.00;;;;5050733;28;20044;-60
2023/04/10 03:13:28;;;;;;;8.90;6.40;;;;;5.90;98973.00;;;;5050829;28;20048;-60
2023/04/10 03:15:55;;;;;;;8.45;6.20;;;;;5.90;98974.00;;;;5052185;28;20088;-59
2023/04/10 03:18:22;;;;;;;7.93;6.00;;;;;5.90;98974.00;;;;5050814;28;20049;-59
2023/04/10 03:20:51;;;;;;;8.85;6.40;;;;;5.90;98974.00;;;;5050504;28;20136;-60
2023/04/10 03:23:19;;;;;;;9.23;6.65;;;;;5.80;98968.00;;;;5050765;28;20049;-60
2023/04/10 03:25:50;;;;;;;8.00;6.53;;;;;5.70;98978.00;;;;5034376;28;20053;-60
2023/04/10 03:28:17;;;;;;;8.63;6.70;;;;;5.70;98971.00;;;;5050699;28;20095;-61
2023/04/10 03:30:44;;;;;;;10.00;7.43;;;;;5.80;98970.00;;;;5052036;28;20146;-60
2023/04/10 03:33:10;;;;;;;9.55;6.47;;;;;5.90;98971.00;;;;5050794;28;20049;-61
2023/04/10 03:35:37;;;;;;;10.13;7.15;;;;;5.80;98968.00;;;;5053632;28;20425;-61
2023/04/10 03:38:05;;;;;;;8.48;6.57;;;;;5.80;98971.00;;;;5054786;28;20045;-61
2023/04/10 03:40:33;;;;;;;8.68;6.63;;;;;5.80;98969.00;;;;5055702;28;20072;-61
2023/04/10 03:42:59;;;;;;;9.20;6.57;;;;;5.80;98968.00;;;;5054653;28;20045;-60
2023/04/10 03:45:29;;;;;;;7.50;6.20;;;;;5.70;98964.00;;;;5054685;28;20052;-60
2023/04/10 03:47:55;;;;;;;8.63;6.43;;;;;5.60;98961.00;;;;5054889;28;20071;-60
2023/04/10 03:50:22;;;;;;;10.10;6.63;;;;;5.50;98963.00;;;;5054058;28;20076;-61
2023/04/10 03:52:54;;;;;;;8.93;6.60;;;;;5.50;98961.00;;;;5054348;28;20053;-61
2023/04/10 03:55:22;;;;;;;10.02;6.95;;;;;5.40;98967.00;;;;5054246;28;20237;-60
2023/04/10 03:57:50;;;;;;;11.43;7.07;;;;;5.50;98969.00;;;;5054251;28;20076;-60
2023/04/10 04:00:20;;;;;;;9.35;7.13;;;;;5.70;98978.00;;;;5053824;28;20041;-60
2023/04/10 04:02:50;;;;;;;8.10;6.75;;;;;5.70;98975.00;;;;5055324;28;20049;-61
2023/04/10 04:05:43;;;;;;;7.85;5.97;;;;;5.80;98965.00;;;;5054236;28;20052;-61
2023/04/10 04:08:37;;;;;;;7.95;6.05;;;;;5.80;98967.00;;;;5053707;28;20075;-61
2023/04/10 04:11:06;;;;;;;9.23;7.10;;;;;5.80;98973.00;;;;5055056;28;20048;-61
2023/04/10 04:13:51;;;;;;;7.90;6.65;;;;;5.90;98965.00;;;;5054088;28;20136;-60
2023/04/10 04:16:47;;;;;;;8.52;6.82;;;;;5.90;98972.00;;;;5052003;28;20052;-61
2023/04/10 04:19:26;;;;;;;12.23;7.25;;;;;5.90;98961.00;;;;5053747;28;20045;-61
2023/04/10 04:22:11;;;;;;;8.70;6.78;;;;;5.70;98972.00;;;;5055229;28;20059;-61
2023/04/10 04:25:00;;;;;;;9.15;7.40;;;;;5.70;98965.00;;;;5053572;28;20122;-61
2023/04/10 04:28:05;;;;;;;9.85;7.18;;;;;5.80;98974.00;;;;5032710;28;20065;-62
2023/04/10 04:30:32;;;;;;;8.02;6.38;;;;;5.70;98967.00;;;;5032141;28;20088;-61
2023/04/10 04:33:09;;;;;;;7.60;6.60;;;;;5.70;98973.00;;;;5034391;28;20075;-60
2023/04/10 04:35:56;;;;;;;9.07;6.95;;;;;5.70;98965.00;;;;5053353;28;20107;-60
2023/04/10 04:38:35;;;;;;;10.05;7.70;;;;;5.70;98964.00;;;;5054574;28;20049;-61
2023/04/10 04:41:10;;;;;;;8.88;6.63;;;;;5.60;98970.00;;;;5053318;28;20051;-62
2023/04/10 04:43:41;;;;;;;8.68;6.65;;;;;5.50;98972.00;;;;5053271;28;20102;-61
2023/04/10 04:46:23;;;;;;;9.45;6.85;;;;;5.50;98985.00;;;;5052415;28;20167;-60
2023/04/10 04:49:09;;;;;;;7.80;6.03;;;;;5.50;98977.00;;;;5054683;28;20120;-60
2023/04/10 04:51:59;;;;;;;7.82;6.35;;;;;5.50;98980.00;;;;5054156;28;20064;-60
2023/04/10 04:54:39;;;;;;;9.55;6.53;;;;;5.50;98966.00;;;;5053744;28;20072;-61
2023/04/10 04:57:20;;;;;;;8.57;6.38;;;;;5.50;98965.00;;;;5053281;28;20071;-60
2023/04/10 05:00:06;;;;;;;10.82;6.88;;;;;5.60;98963.00;;;;5052570;28;20512;-60
2023/04/10 05:02:51;;;;;;;11.20;6.80;;;;;5.60;98964.00;;;;5054434;28;20048;-61
2023/04/10 05:05:30;;;;;;;8.85;6.55;;;;;5.60;98950.00;;;;5054640;28;20561;-61
2023/04/10 05:08:15;;;;;;;9.75;7.07;;;;;5.70;98955.00;;;;5053312;28;20056;-60
2023/04/10 05:10:56;;;;;;;13.63;9.13;;;;;5.80;98959.00;;;;5053106;28;20041;-60
2023/04/10 05:13:38;;;;;;;22.00;14.73;;;;;5.90;98959.00;;;;5054027;28;20072;-61
2023/04/10 05:16:18;;;;;;;14.02;8.98;;;;;6.10;98954.00;;;;5053921;28;20682;-61
2023/04/10 05:19:00;;;;;;;10.63;7.63;;;;;6.10;98954.00;;;;5053827;28;20045;-60
2023/04/10 05:21:51;;;;;;;11.82;7.40;;;;;6.00;98958.00;;;;5054067;28;20536;-60
2023/04/10 05:24:36;;;;;;;11.20;7.10;;;;;5.90;98955.00;;;;5055216;28;20056;-61
2023/04/10 05:27:16;;;;;;;9.10;7.07;;;;;5.90;98955.00;;;;5037449;28;20049;-61
2023/04/10 05:30:03;;;;;;;12.38;8.18;;;;;6.10;98949.00;;;;5041956;28;20049;-60
2023/04/10 05:32:42;;;;;;;12.93;8.38;;;;;6.10;98951.00;;;;5053825;28;20119;-60
2023/04/10 05:35:25;;;;;;;12.15;8.85;;;;;6.20;98950.00;;;;5054143;28;20045;-60
2023/04/10 05:37:59;;;;;;;11.45;7.90;;;;;6.20;98950.00;;;;5055113;28;20048;-60
2023/04/10 05:40:37;;;;;;;11.10;8.07;;;;;6.20;98945.00;;;;5052132;28;20041;-60
2023/04/10 05:43:23;;;;;;;12.25;7.80;;;;;6.20;98960.00;;;;5052597;28;20572;-63
2023/04/10 05:45:57;;;;;;;13.00;8.98;;;;;6.20;98968.00;;;;5054027;28;20086;-60
2023/04/10 05:49:00;;;;;;;13.38;8.45;;;;;6.30;98964.00;;;;5030962;28;20132;-61
2023/04/10 05:51:49;;;;;;;11.35;8.65;;;;;6.40;98963.00;;;;5051911;28;20409;-60
2023/04/10 05:54:32;;;;;;;12.00;8.50;;;;;6.50;98965.00;;;;5053349;28;20037;-59
2023/04/10 05:57:31;;;;;;;10.18;8.07;;;;;6.70;98977.00;;;;5052291;28;20060;-60
2023/04/10 06:00:16;;;;;;;13.07;9.88;;;;;6.70;98974.00;;;;5053604;28;20059;-60
2023/04/10 06:03:18;;;;;;;17.77;11.45;;;;;6.80;98961.00;;;;5054490;28;20044;-59
2023/04/10 06:05:53;;;;;;;15.07;10.82;;;;;6.90;98971.00;;;;5037539;28;20053;-60
2023/04/10 06:08:21;;;;;;;13.77;9.55;;;;;7.00;98969.00;;;;5052513;28;20106;-60
2023/04/10 06:10:48;;;;;;;12.32;8.63;;;;;7.20;98972.00;;;;5052681;28;20037;-60
2023/04/10 06:13:14;;;;;;;13.45;9.02;;;;;7.30;98974.00;;;;5053949;28;20048;-60
2023/04/10 06:15:41;;;;;;;16.38;12.27;;;;;7.50;98964.00;;;;5052283;28;20131;-60
2023/04/10 06:18:08;;;;;;;12.98;9.07;;;;;7.60;98970.00;;;;5051836;28;20413;-60
2023/04/10 06:20:36;;;;;;;13.02;8.27;;;;;7.70;98961.00;;;;5051427;28;20514;-60
2023/04/10 06:23:02;;;;;;;10.68;8.40;;;;;7.90;98962.00;;;;5051821;28;20505;-59
2023/04/10 06:25:29;;;;;;;10.88;9.02;;;;;8.00;98968.00;;;;5051720;28;20041;-60
2023/04/10 06:27:57;;;;;;;10.60;8.20;;;;;8.20;98961.00;;;;5051817;28;20099;-61
2023/04/10 06:30:25;;;;;;;13.88;10.02;;;;;8.30;98967.00;;;;5051796;28;20183;-60
2023/04/10 06:32:51;;;;;;;11.43;8.32;;;;;8.40;98963.00;;;;5051913;28;20053;-60
2023/04/10 06:35:20;;;;;;;9.80;7.20;;;;;8.60;98961.00;;;;5053181;28;20033;-60
2023/04/10 06:37:46;;;;;;;11.77;8.10;;;;;8.70;98964.00;;;;5052186;28;20056;-60
2023/04/10 06:40:14;;;;;;;11.40;7.43;;;;;8.80;98969.00;;;;5051955;28;20045;-61
2023/04/10 06:42:41;;;;;;;13.25;9.88;;;;;8.90;98961.00;;;;5053015;28;20105;-61
2023/04/10 06:45:22;;;;;;;10.93;7.80;;;;;9.00;98958.00;;;;5051565;28;20053;-61
2023/04/10 06:47:49;;;;;;;9.23;7.15;;;;;9.10;98965.00;;;;5052634;28;20045;-62
2023/04/10 06:50:16;;;;;;;8.13;5.90;;;;;9.30;98960.00;;;;5052774;28;20079;-60
2023/04/10 06:52:46;;;;;;;7.20;5.80;;;;;9.40;98968.00;;;;5052519;28;20044;-60
2023/04/10 06:55:12;;;;;;;7.43;5.95;;;;;9.50;98961.00;;;;5052492;28;20048;-61
2023/04/10 06:57:39;;;;;;;6.45;5.68;;;;;9.70;98970.00;;;;5052678;28;20041;-57
2023/04/10 07:00:06;;;;;;;6.85;6.07;;;;;9.90;98962.00;;;;5052433;28;20049;-57
2023/04/10 07:02:33;;;;;;;8.15;5.53;;;;;10.00;98965.00;;;;5052533;28;20041;-56
2023/04/10 07:05:00;;;;;;;8.57;6.28;;;;;10.10;98973.00;;;;5052851;28;20076;-58
2023/04/10 07:07:28;;;;;;;6.32;5.43;;;;;10.20;98959.00;;;;5053115;28;20448;-57
2023/04/10 07:09:57;;;;;;;7.00;5.78;;;;;10.40;98955.00;;;;5053491;28;20045;-60
2023/04/10 07:12:24;;;;;;;9.07;6.40;;;;;10.50;98960.00;;;;5057589;28;20045;-58
2023/04/10 07:14:50;;;;;;;7.90;6.20;;;;;10.70;98953.00;;;;5055834;28;20478;-59
2023/04/10 07:17:17;;;;;;;34.42;22.77;;;;;10.90;98947.00;;;;5057309;28;20041;-57
2023/04/10 07:19:43;;;;;;;12.15;8.88;;;;;11.00;98955.00;;;;5057253;28;20079;-58
2023/04/10 07:22:10;;;;;;;6.70;5.60;;;;;11.20;98947.00;;;;5057004;28;20052;-58
2023/04/10 07:24:37;;;;;;;6.35;5.00;;;;;11.30;98951.00;;;;5057030;28;20053;-58
2023/04/10 07:27:03;;;;;;;6.28;4.95;;;;;11.50;98954.00;;;;5057415;28;20065;-57
2023/04/10 07:29:30;;;;;;;5.22;4.25;;;;;11.60;98950.00;;;;5056529;28;20048;-58
2023/04/10 07:31:56;;;;;;;6.32;4.93;;;;;11.70;98951.00;;;;5056808;28;20053;-59
2023/04/10 07:34:25;;;;;;;5.68;4.47;;;;;11.70;98945.00;;;;5056898;28;20048;-60
2023/04/10 07:36:51;;;;;;;4.63;4.00;;;;;11.90;98941.00;;;;5056591;28;20037;-59
2023/04/10 07:39:18;;;;;;;4.30;3.90;;;;;12.00;98944.00;;;;5056453;28;20087;-57
2023/04/10 07:41:44;;;;;;;5.40;4.72;;;;;12.00;98947.00;;;;5057061;28;20044;-57
2023/04/10 07:44:12;;;;;;;5.28;4.35;;;;;12.20;98960.00;;;;5056959;28;20094;-60
2023/04/10 07:46:38;;;;;;;5.22;4.05;;;;;12.40;98954.00;;;;5056451;28;20041;-60
2023/04/10 07:49:05;;;;;;;4.78;4.20;;;;;12.50;98951.00;;;;5055434;28;20057;-58
2023/04/10 07:51:34;;;;;;;4.53;4.10;;;;;12.60;98953.00;;;;5056258;28;20045;-58
2023/04/10 07:54:02;;;;;;;4.40;3.90;;;;;12.80;98954.00;;;;5055181;28;20449;-59
2023/04/10 07:56:30;;;;;;;5.30;4.40;;;;;12.90;98950.00;;;;5056620;28;20060;-61
2023/04/10 07:58:59;;;;;;;4.45;4.05;;;;;13.10;98943.00;;;;5056441;28;20044;-58
2023/04/10 08:01:27;;;;;;;5.15;4.05;;;;;13.20;98952.00;;;;5057214;28;20049;-58
2023/04/10 08:03:55;;;;;;;4.10;3.60;;;;;13.40;98945.00;;;;5056582;28;20155;-59
2023/04/10 08:06:22;;;;;;;5.57;4.40;;;;;13.50;98948.00;;;;5056256;28;20079;-57
2023/04/10 08:08:49;;;;;;;5.15;3.72;;;;;13.60;98937.00;;;;5055575;28;20056;-58
2023/04/10 08:11:28;;;;;;;4.45;3.70;;;;;13.70;98936.00;;;;5055932;28;20040;-58
2023/04/10 08:13:57;;;;;;;4.38;3.47;;;;;13.70;98939.00;;;;5054663;28;20052;-61
2023/04/10 08:16:25;;;;;;;3.95;3.55;;;;;13.80;98937.00;;;;5054658;28;20095;-57
2023/04/10 08:18:53;;;;;;;4.65;3.63;;;;;13.90;98938.00;;;;5054505;28;20124;-58
2023/04/10 08:21:22;;;;;;;3.95;3.58;;;;;14.10;98936.00;;;;5054717;28;20048;-60
2023/04/10 08:23:52;;;;;;;3.47;3.10;;;;;14.20;98935.00;;;;5056111;28;20067;-58
2023/04/10 08:26:20;;;;;;;4.63;3.47;;;;;14.20;98922.00;;;;5056294;28;20051;-61
2023/04/10 08:28:51;;;;;;;4.40;3.92;;;;;14.40;98928.00;;;;5055697;28;20045;-63
2023/04/10 08:31:24;;;;;;;3.83;3.45;;;;;14.50;98928.00;;;;5054639;28;20437;-58
2023/04/10 08:33:54;;;;;;;4.00;3.05;;;;;14.70;98932.00;;;;5056399;28;20065;-59
2023/04/10 08:36:21;;;;;;;3.58;3.28;;;;;14.80;98925.00;;;;5056422;28;20071;-64
2023/04/10 08:38:49;;;;;;;3.53;3.22;;;;;15.00;98920.00;;;;5056148;28;20044;-58
2023/04/10 08:41:21;;;;;;;3.40;2.83;;;;;15.10;98920.00;;;;5054846;28;20417;-61
2023/04/10 08:43:50;;;;;;;3.65;3.22;;;;;15.20;98917.00;;;;5055459;28;20041;-61
2023/04/10 08:46:17;;;;;;;3.38;3.08;;;;;15.30;98918.00;;;;5055780;28;20148;-61
2023/04/10 08:48:58;;;;;;;4.47;3.85;;;;;15.30;98919.00;;;;5055633;28;20045;-63
2023/04/10 08:51:40;;;;;;;4.07;3.00;;;;;15.40;98920.00;;;;5056198;28;20405;-63
2023/04/10 08:54:37;;;;;;;3.15;2.85;;;;;15.50;98913.00;;;;5054089;28;20041;-56
2023/04/10 08:57:05;;;;;;;5.88;3.28;;;;;15.60;98905.00;;;;5054666;28;20060;-59
2023/04/10 08:59:35;;;;;;;2.92;2.70;;;;;15.60;98904.00;;;;5054106;28;20411;-56
2023/04/10 09:02:01;;;;;;;3.45;3.15;;;;;15.70;98904.00;;;;5054296;28;20040;-57
2023/04/10 09:04:28;;;;;;;4.15;3.15;;;;;15.80;98904.00;;;;5053470;28;20048;-58
2023/04/10 09:06:55;;;;;;;3.17;2.88;;;;;16.00;98900.00;;;;5055153;28;20055;-57
2023/04/10 09:09:22;;;;;;;2.67;2.47;;;;;16.10;98898.00;;;;5054250;28;20493;-58
2023/04/10 09:11:51;;;;;;;2.80;2.58;;;;;16.20;98893.00;;;;5052628;28;20037;-58
2023/04/10 09:14:29;;;;;;;2.70;2.50;;;;;16.30;98891.00;;;;5053992;28;20520;-56
2023/04/10 09:17:23;;;;;;;4.43;2.90;;;;;16.20;98893.00;;;;5053971;28;20052;-57
2023/04/10 09:19:54;;;;;;;3.00;2.72;;;;;16.40;98900.00;;;;5054106;28;20120;-59
2023/04/10 09:22:29;;;;;;;3.20;2.70;;;;;16.40;98900.00;;;;5054152;28;20044;-58
2023/04/10 09:24:58;;;;;;;3.13;2.83;;;;;16.40;98894.00;;;;5054519;28;20045;-60
2023/04/10 09:27:33;;;;;;;3.28;2.97;;;;;16.40;98892.00;;;;5054292;28;20056;-61
2023/04/10 09:30:01;;;;;;;2.85;2.60;;;;;16.40;98879.00;;;;5053534;28;20052;-61
2023/04/10 09:32:37;;;;;;;2.55;2.35;;;;;16.60;98890.00;;;;5053778;28;20045;-62
2023/04/10 09:35:04;;;;;;;2.78;2.50;;;;;16.70;98882.00;;;;5053737;28;20088;-60
2023/04/10 09:37:32;;;;;;;2.60;2.40;;;;;16.80;98866.00;;;;5053683;28;20095;-61
2023/04/10 09:39:59;;;;;;;2.85;2.47;;;;;16.90;98865.00;;;;5053280;28;20049;-60
2023/04/10 09:42:31;;;;;;;2.88;2.30;;;;;17.10;98866.00;;;;5052349;28;20072;-60
2023/04/10 09:44:58;;;;;;;2.58;2.38;;;;;17.10;98877.00;;;;5052552;28;20053;-60
2023/04/10 09:47:25;;;;;;;1.90;1.67;;;;;17.30;98868.00;;;;5053595;28;20041;-61
2023/04/10 09:49:59;;;;;;;1.70;1.60;;;;;17.30;98859.00;;;;5051842;28;20045;-61
2023/04/10 09:52:27;;;;;;;2.85;2.38;;;;;17.40;98858.00;;;;5053496;28;20429;-61
2023/04/10 09:55:06;;;;;;;3.17;2.88;;;;;17.40;98853.00;;;;5053077;28;20045;-60
2023/04/10 09:57:34;;;;;;;2.08;1.80;;;;;17.60;98855.00;;;;5052535;28;20076;-62
2023/04/10 10:00:04;;;;;;;2.17;1.95;;;;;17.80;98847.00;;;;5052052;28;20037;-62
2023/04/10 10:02:37;;;;;;;3.10;2.80;;;;;18.00;98848.00;;;;5052935;28;20056;-57
2023/04/10 10:05:05;;;;;;;2.85;2.05;;;;;18.20;98844.00;;;;5052567;28;20083;-58
2023/04/10 10:07:33;;;;;;;3.10;2.70;;;;;18.50;98852.00;;;;5050881;28;20045;-60
2023/04/10 10:10:01;;;;;;;3.90;3.10;;;;;18.70;98842.00;;;;5052168;28;20147;-59
2023/04/10 10:12:34;;;;;;;2.13;1.92;;;;;18.90;98843.00;;;;5052284;28;20045;-60
2023/04/10 10:15:09;;;;;;;1.88;1.73;;;;;18.90;98840.00;;;;5034970;28;20131;-58
2023/04/10 10:17:45;;;;;;;2.72;2.08;;;;;18.90;98834.00;;;;5052741;28;20091;-58
2023/04/10 10:20:16;;;;;;;2.35;2.15;;;;;19.10;98834.00;;;;5052273;28;20678;-58
2023/04/10 10:22:45;;;;;;;2.30;2.10;;;;;19.10;98835.00;;;;5052593;28;20052;-60
2023/04/10 10:25:12;;;;;;;3.13;2.35;;;;;19.20;98840.00;;;;5052618;28;20494;-58
2023/04/10 10:27:40;;;;;;;3.13;2.20;;;;;19.40;98829.00;;;;5052380;28;20048;-58
2023/04/10 10:30:08;;;;;;;2.83;2.42;;;;;19.60;98828.00;;;;5052180;28;20045;-61
2023/04/10 10:32:54;;;;;;;1.90;1.80;;;;;19.60;98826.00;;;;5052726;28;20095;-58
2023/04/10 10:35:22;;;;;;;2.40;2.20;;;;;19.70;98830.00;;;;5052379;28;20045;-58
2023/04/10 10:37:53;;;;;;;2.15;1.95;;;;;19.70;98830.00;;;;5051016;28;20450;-59
2023/04/10 10:40:41;;;;;;;3.30;2.55;;;;;19.90;98832.00;;;;5051554;28;20102;-57
2023/04/10 10:43:17;;;;;;;2.28;2.08;;;;;19.80;98827.00;;;;5051961;28;20045;-58
2023/04/10 10:46:14;;;;;;;3.58;2.30;;;;;19.70;98825.00;;;;5049752;28;20486;-58
2023/04/10 10:48:57;;;;;;;2.45;2.25;;;;;19.70;98811.00;;;;5050956;28;20068;-60
2023/04/10 10:51:42;;;;;;;2.25;2.05;;;;;19.80;98809.00;;;;5051701;28;20555;-59
2023/04/10 10:54:27;;;;;;;2.80;2.60;;;;;20.10;98809.00;;;;5052047;28;20045;-60
2023/04/10 10:56:58;;;;;;;2.67;2.15;;;;;20.20;98802.00;;;;5052444;28;20456;-59
2023/04/10 10:59:47;;;;;;;2.15;1.95;;;;;20.40;98801.00;;;;5051057;28;20132;-60
2023/04/10 11:02:20;;;;;;;2.33;2.13;;;;;20.50;98794.00;;;;5051067;28;20090;-60
2023/04/10 11:04:58;;;;;;;2.58;2.38;;;;;20.60;98798.00;;;;5035194;28;20059;-58
2023/04/10 11:07:57;;;;;;;2.63;2.42;;;;;20.70;98814.00;;;;5052774;28;20472;-58
2023/04/10 11:11:05;;;;;;;2.40;2.20;;;;;20.60;98806.00;;;;5050569;28;20060;-59
2023/04/10 11:13:34;;;;;;;2.30;2.10;;;;;20.60;98814.00;;;;5050751;28;20106;-60
2023/04/10 11:16:06;;;;;;;2.65;2.05;;;;;20.60;98796.00;;;;5052081;28;20049;-57
2023/04/10 11:19:03;;;;;;;2.15;1.95;;;;;20.60;98796.00;;;;5050522;28;20041;-60
2023/04/10 11:22:14;;;;;;;2.47;2.28;;;;;20.60;98801.00;;;;5050407;28;20142;-60
2023/04/10 11:24:58;;;;;;;1.50;1.40;;;;;20.50;98793.00;;;;5029190;28;20106;-59
2023/04/10 11:27:50;;;;;;;1.83;1.63;;;;;20.50;98778.00;;;;5051277;28;20045;-59
2023/04/10 11:30:29;;;;;;;1.92;1.70;;;;;20.50;98773.00;;;;5051191;28;20132;-61
2023/04/10 11:33:01;;;;;;;3.60;2.15;;;;;20.60;98757.00;;;;5052267;28;20382;-57
2023/04/10 11:35:31;;;;;;;2.10;1.90;;;;;20.70;98752.00;;;;5051672;28;20080;-59
2023/04/10 11:38:28;;;;;;;1.88;1.58;;;;;21.00;98764.00;;;;5052055;28;20452;-58
2023/04/10 11:40:57;;;;;;;1.60;1.50;;;;;21.10;98756.00;;;;5042102;28;20084;-62
2023/04/10 11:43:24;;;;;;;1.75;1.60;;;;;21.10;98762.00;;;;5051771;28;20041;-59
2023/04/10 11:46:04;;;;;;;1.77;1.63;;;;;20.90;98754.00;;;;5051359;28;20079;-60
2023/04/10 11:48:33;;;;;;;2.08;1.70;;;;;20.90;98754.00;;;;5049729;28;20064;-59
2023/04/10 11:51:11;;;;;;;1.50;1.40;;;;;20.90;98757.00;;;;5033974;28;20182;-59
2023/04/10 11:53:40;;;;;;;2.22;2.03;;;;;20.80;98752.00;;;;5051133;28;20041;-59
2023/04/10 11:56:19;;;;;;;2.08;1.88;;;;;20.90;98752.00;;;;5051948;28;20048;-60
2023/04/10 11:58:49;;;;;;;1.92;1.73;;;;;20.90;98741.00;;;;5054546;28;20049;-59
2023/04/10 12:01:20;;;;;;;2.00;1.50;;;;;20.90;98733.00;;;;5054472;28;20041;-59
2023/04/10 12:03:47;;;;;;;1.70;1.60;;;;;21.00;98732.00;;;;5054711;28;20067;-59
2023/04/10 12:06:14;;;;;;;1.98;1.70;;;;;21.10;98726.00;;;;5053204;28;20049;-60
2023/04/10 12:08:46;;;;;;;1.90;1.80;;;;;21.30;98723.00;;;;5054491;28;20119;-57
2023/04/10 12:11:13;;;;;;;1.30;1.20;;;;;21.40;98723.00;;;;5054382;28;20449;-60
2023/04/10 12:13:40;;;;;;;2.58;1.50;;;;;21.50;98720.00;;;;5054362;28;20045;-60
2023/04/10 12:16:08;;;;;;;4.40;1.60;;;;;21.60;98715.00;;;;5054295;28;20049;-60
2023/04/10 12:18:35;;;;;;;1.55;1.45;;;;;21.70;98717.00;;;;5054109;28;20482;-59
2023/04/10 12:21:03;;;;;;;1.50;1.40;;;;;21.70;98721.00;;;;5054020;28;20418;-60
2023/04/10 12:23:36;;;;;;;1.60;1.40;;;;;21.60;98712.00;;;;5054225;28;20140;-59
2023/04/10 12:26:13;;;;;;;1.85;1.48;;;;;21.70;98709.00;;;;5036810;28;20140;-58
2023/04/10 12:28:49;;;;;;;1.40;1.30;;;;;21.60;98708.00;;;;5054049;28;20087;-58
2023/04/10 12:31:16;;;;;;;2.65;1.30;;;;;21.80;98705.00;;;;5054302;28;20120;-55
2023/04/10 12:33:44;;;;;;;1.60;1.50;;;;;21.70;98701.00;;;;5054756;28;20045;-58
2023/04/10 12:36:21;;;;;;;1.52;1.42;;;;;21.80;98702.00;;;;5054543;28;20098;-58
2023/04/10 12:38:48;;;;;;;2.65;2.00;;;;;22.00;98702.00;;;;5054240;28;20040;-57
2023/04/10 12:41:22;;;;;;;1.80;1.60;;;;;21.90;98696.00;;;;5054061;28;20041;-58
2023/04/10 12:43:50;;;;;;;1.85;1.70;;;;;22.00;98699.00;;;;5053800;28;20049;-61
2023/04/10 12:46:26;;;;;;;1.90;1.70;;;;;22.00;98702.00;;;;5054041;28;20044;-60
2023/04/10 12:49:07;;;;;;;1.55;1.45;;;;;22.10;98696.00;;;;5052582;28;20106;-57
2023/04/10 12:51:48;;;;;;;2.55;1.17;;;;;22.10;98693.00;;;;5054080;28;20048;-56